Time;durP1;ratioP1;P1;durP2;ratioP2;P2;SDS_P1;SDS_P2;PMS_P1;PMS_P2;Temp;Humidity;BMP_temperature;BMP_pressure;BME280_temperature;BME280_humidity;BME280_pressure;Samples;Min_cycle;Max_cycle;Signal;HPM_P1;HPM_P2
2023/12/31 00:02:28;;;;;;;26.70;15.35;;;;;;;4.44;61.19;100005.47;7710574;32;37813;-87
2023/12/31 00:06:44;;;;;;;23.55;14.90;;;;;;;4.46;60.98;100008.75;7710728;32;37691;-87
2023/12/31 00:11:00;;;;;;;28.85;17.12;;;;;;;4.56;60.99;100005.53;7710478;32;39366;-87
2023/12/31 00:15:16;;;;;;;27.98;15.52;;;;;;;4.48;61.47;99987.75;7710422;32;39872;-87
2023/12/31 00:19:33;;;;;;;25.80;15.63;;;;;;;4.70;61.41;99986.22;7710544;32;37800;-88
2023/12/31 00:23:49;;;;;;;43.22;24.00;;;;;;;4.76;61.52;99992.59;7707246;32;37194;-88
2023/12/31 00:28:05;;;;;;;32.78;19.92;;;;;;;4.61;61.72;99986.78;7683533;32;40003;-87
2023/12/31 00:32:22;;;;;;;23.17;13.95;;;;;;;4.31;62.18;99990.25;7683487;32;39791;-87
2023/12/31 00:36:38;;;;;;;24.08;13.62;;;;;;;4.31;61.79;99976.75;7683699;32;37758;-87
2023/12/31 00:40:54;;;;;;;22.92;13.65;;;;;;;4.40;61.94;99978.09;7686575;32;38180;-87
2023/12/31 00:45:11;;;;;;;21.98;12.48;;;;;;;4.29;62.10;99978.84;7686611;32;39657;-87
2023/12/31 00:49:27;;;;;;;21.33;12.48;;;;;;;4.36;61.63;99979.59;7686422;32;40772;-86
2023/12/31 00:53:43;;;;;;;19.40;12.18;;;;;;;4.25;61.26;99981.19;7686371;32;38014;-88
2023/12/31 00:58:00;;;;;;;23.08;12.80;;;;;;;4.33;60.92;99971.97;7686312;32;38056;-88
2023/12/31 01:02:16;;;;;;;23.00;13.90;;;;;;;4.23;60.93;99985.16;7686137;32;39891;-88
2023/12/31 01:06:32;;;;;;;23.42;13.98;;;;;;;4.27;60.52;99983.66;7686364;32;39978;-87
2023/12/31 01:10:48;;;;;;;23.20;14.77;;;;;;;4.26;60.39;99982.00;7686180;32;37895;-87
2023/12/31 01:15:05;;;;;;;36.67;16.48;;;;;;;4.21;60.83;99982.69;7686162;32;37951;-88
2023/12/31 01:19:22;;;;;;;21.37;14.07;;;;;;;4.20;61.05;99982.91;7685687;32;39119;-86
2023/12/31 01:23:38;;;;;;;24.00;14.60;;;;;;;4.35;61.14;99980.66;7686143;32;39645;-85
2023/12/31 01:27:55;;;;;;;23.05;13.98;;;;;;;4.38;61.20;99974.81;7684725;32;38562;-86
2023/12/31 01:32:11;;;;;;;28.92;14.55;;;;;;;4.10;62.29;99983.44;7685988;32;37336;-85
2023/12/31 01:36:28;;;;;;;26.25;14.45;;;;;;;4.05;61.90;99984.13;7685930;32;39106;-86
2023/12/31 01:40:53;;;;;;;22.08;13.52;;;;;;;3.89;61.96;99982.81;7685906;32;39559;-86
2023/12/31 01:45:10;;;;;;;23.30;13.82;;;;;;;3.86;61.98;99971.63;7685769;32;37686;-85
2023/12/31 01:49:29;;;;;;;23.58;14.23;;;;;;;3.83;61.93;99972.09;7685067;32;37988;-85
2023/12/31 01:53:46;;;;;;;21.65;14.45;;;;;;;3.95;61.34;99962.22;7685884;32;39321;-86
2023/12/31 01:58:03;;;;;;;42.33;15.10;;;;;;;3.81;61.82;99972.34;7684301;32;40064;-86
2023/12/31 02:02:21;;;;;;;24.63;13.75;;;;;;;3.80;62.16;99964.47;7685487;32;37838;-86
2023/12/31 02:06:38;;;;;;;47.00;15.82;;;;;;;3.89;62.15;99961.22;7685581;32;37168;-85
2023/12/31 02:10:55;;;;;;;33.97;15.45;;;;;;;3.67;63.31;99960.81;7684438;32;40111;-85
2023/12/31 02:15:11;;;;;;;25.40;14.05;;;;;;;3.70;63.23;99960.38;7705836;32;39838;-86
2023/12/31 02:19:27;;;;;;;25.35;14.60;;;;;;;3.87;62.52;99946.34;7710782;32;37919;-86
2023/12/31 02:23:44;;;;;;;23.15;13.98;;;;;;;3.91;62.15;99947.53;7710631;32;36329;-88
2023/12/31 02:28:00;;;;;;;23.05;14.18;;;;;;;3.74;63.60;99944.59;7710813;32;39917;-85
2023/12/31 02:32:16;;;;;;;26.10;16.40;;;;;;;3.89;62.86;99946.94;7711902;32;39863;-85
2023/12/31 02:36:32;;;;;;;29.75;16.80;;;;;;;3.60;63.06;99929.59;7711711;32;38058;-86
2023/12/31 02:40:49;;;;;;;27.75;15.98;;;;;;;3.79;62.82;99941.22;7711863;32;38068;-85
2023/12/31 02:45:06;;;;;;;25.12;15.75;;;;;;;3.84;62.62;99946.78;7711970;32;39919;-85
2023/12/31 02:49:22;;;;;;;23.87;14.52;;;;;;;3.59;63.35;99944.94;7711676;32;39712;-86
2023/12/31 02:53:38;;;;;;;27.42;14.90;;;;;;;3.87;62.26;99930.16;7711619;32;38664;-85
2023/12/31 02:57:54;;;;;;;29.90;15.90;;;;;;;3.94;62.22;99936.28;7711594;32;37365;-85
2023/12/31 03:02:11;;;;;;;24.85;15.15;;;;;;;3.82;62.38;99932.69;7710839;32;39615;-85
2023/12/31 03:06:32;;;;;;;23.40;14.35;;;;;;;3.89;62.17;99920.78;7711473;32;40780;-86
2023/12/31 03:10:48;;;;;;;26.87;15.88;;;;;;;3.95;61.78;99917.19;7710380;32;37972;-85
2023/12/31 03:15:05;;;;;;;23.73;15.02;;;;;;;4.04;61.31;99919.59;7685094;32;37263;-85
2023/12/31 03:19:21;;;;;;;53.42;15.07;;;;;;;4.12;61.40;99921.97;7685838;32;40233;-86
2023/12/31 03:23:38;;;;;;;151.63;18.33;;;;;;;3.63;62.84;99924.56;7684693;32;40646;-86
2023/12/31 03:27:54;;;;;;;41.00;16.50;;;;;;;3.66;62.86;99918.75;7684565;32;38467;-85
2023/12/31 03:32:11;;;;;;;65.28;15.57;;;;;;;3.70;62.61;99908.34;7684786;32;37953;-85
2023/12/31 03:36:27;;;;;;;55.08;15.60;;;;;;;3.79;62.57;99908.87;7684561;32;39428;-85
2023/12/31 03:40:44;;;;;;;53.40;14.15;;;;;;;3.81;62.43;99909.47;7684569;32;39614;-86
2023/12/31 03:45:00;;;;;;;22.60;14.15;;;;;;;3.47;63.34;99911.69;7684308;32;37863;-86
2023/12/31 03:49:16;;;;;;;25.42;14.23;;;;;;;3.67;62.87;99898.81;7684444;32;38229;-86
2023/12/31 03:53:33;;;;;;;23.58;14.38;;;;;;;3.75;62.70;99893.13;7684301;32;39434;-85
2023/12/31 03:57:49;;;;;;;24.85;15.48;;;;;;;3.70;62.79;99892.97;7684057;32;40754;-86
2023/12/31 04:02:05;;;;;;;24.52;14.85;;;;;;;3.71;62.86;99891.94;7683873;32;38016;-86
2023/12/31 04:06:22;;;;;;;24.92;15.77;;;;;;;3.68;63.10;99889.69;7684841;32;37804;-85
2023/12/31 04:10:38;;;;;;;25.80;15.43;;;;;;;3.89;62.44;99882.19;7684796;32;40218;-85
2023/12/31 04:14:55;;;;;;;27.75;16.58;;;;;;;3.79;62.53;99879.19;7683299;32;40079;-86
2023/12/31 04:19:14;;;;;;;28.83;15.80;;;;;;;3.69;62.60;99874.31;7683653;32;38678;-85
2023/12/31 04:23:31;;;;;;;27.35;15.40;;;;;;;3.71;62.78;99881.16;7683790;32;38077;-86
2023/12/31 04:27:47;;;;;;;29.08;16.10;;;;;;;3.58;62.57;99870.50;7683508;32;40160;-86
2023/12/31 04:32:04;;;;;;;27.27;16.50;;;;;;;3.46;62.74;99875.81;7683442;32;40674;-86
2023/12/31 04:36:20;;;;;;;27.87;15.88;;;;;;;3.32;63.14;99874.28;7683237;32;37881;-86
2023/12/31 04:40:36;;;;;;;31.52;16.70;;;;;;;3.39;62.90;99869.66;7683312;32;38011;-87
2023/12/31 04:44:52;;;;;;;91.37;18.83;;;;;;;3.44;63.12;99877.09;7683248;32;39430;-86
2023/12/31 04:49:08;;;;;;;50.95;15.38;;;;;;;3.30;64.10;99879.91;7683080;32;39958;-85
2023/12/31 04:53:25;;;;;;;57.80;17.50;;;;;;;3.39;63.58;99869.66;7683065;32;38732;-86
2023/12/31 04:57:41;;;;;;;28.00;15.90;;;;;;;3.37;63.76;99885.22;7682877;32;37213;-86
2023/12/31 05:01:57;;;;;;;116.25;18.73;;;;;;;3.69;63.02;99867.06;7682862;32;39353;-85
2023/12/31 05:06:14;;;;;;;29.55;16.17;;;;;;;3.39;63.68;99870.47;7696899;32;40878;-86
2023/12/31 05:10:31;;;;;;;91.55;20.88;;;;;;;3.55;63.18;99862.84;7689861;32;37890;-86
2023/12/31 05:14:47;;;;;;;136.70;20.62;;;;;;;3.54;63.33;99861.22;7682558;32;37473;-85
2023/12/31 05:19:03;;;;;;;170.07;21.42;;;;;;;3.47;63.62;99865.88;7682439;32;39432;-86
2023/12/31 05:23:19;;;;;;;39.20;18.08;;;;;;;3.69;63.41;99858.13;7682473;32;40043;-86
2023/12/31 05:27:36;;;;;;;40.08;21.02;;;;;;;3.71;63.21;99862.28;7685942;32;37627;-86
2023/12/31 05:31:52;;;;;;;69.15;23.95;;;;;;;3.51;63.78;99869.75;7686064;32;37217;-85
2023/12/31 05:36:08;;;;;;;31.95;18.75;;;;;;;3.57;63.57;99863.47;7686155;32;40204;-85
2023/12/31 05:40:24;;;;;;;46.17;18.48;;;;;;;3.70;63.52;99865.19;7687762;32;40862;-85
2023/12/31 05:44:41;;;;;;;37.17;18.98;;;;;;;3.81;63.45;99871.69;7712512;32;38575;-85
2023/12/31 05:48:57;;;;;;;75.93;25.30;;;;;;;3.89;63.50;99874.91;7712416;32;37253;-85
2023/12/31 05:53:13;;;;;;;57.45;22.52;;;;;;;3.73;64.08;99881.75;7712323;32;39492;-85
2023/12/31 05:57:30;;;;;;;35.60;19.25;;;;;;;3.72;64.19;99872.00;7711265;32;39618;-84
2023/12/31 06:01:46;;;;;;;37.95;19.60;;;;;;;3.64;64.33;99872.31;7692173;32;37605;-85
2023/12/31 06:06:03;;;;;;;48.17;20.33;;;;;;;3.70;64.00;99870.59;7685726;32;38190;-85
2023/12/31 06:10:20;;;;;;;53.35;19.23;;;;;;;3.82;63.51;99857.19;7685522;32;39953;-85
2023/12/31 06:14:36;;;;;;;46.72;18.50;;;;;;;3.81;63.58;99866.31;7685523;32;40797;-85
2023/12/31 06:18:52;;;;;;;123.62;24.40;;;;;;;3.70;63.72;99857.91;7685337;32;37908;-86
2023/12/31 06:23:08;;;;;;;59.45;19.10;;;;;;;3.09;65.92;99864.16;7685434;32;37577;-85
2023/12/31 06:27:24;;;;;;;179.57;22.58;;;;;;;3.43;64.81;99857.38;7685437;32;39448;-86
2023/12/31 06:31:41;;;;;;;94.85;19.25;;;;;;;3.55;64.37;99854.75;7686039;32;40790;-85
2023/12/31 06:35:57;;;;;;;49.80;17.25;;;;;;;3.54;64.36;99863.91;7684807;32;38157;-85
2023/12/31 06:40:13;;;;;;;42.62;18.35;;;;;;;3.35;64.98;99858.50;7685272;32;37259;-85
2023/12/31 06:44:30;;;;;;;83.45;19.58;;;;;;;3.66;64.27;99843.25;7685917;32;39877;-85
2023/12/31 06:48:47;;;;;;;81.87;19.05;;;;;;;3.49;64.94;99852.97;7685244;32;40891;-86
2023/12/31 06:53:03;;;;;;;36.15;17.45;;;;;;;3.63;64.76;99848.28;7700740;32;37973;-86
2023/12/31 06:57:20;;;;;;;58.25;19.70;;;;;;;3.48;65.12;99846.75;7711545;32;37265;-85
2023/12/31 07:01:36;;;;;;;117.95;20.27;;;;;;;3.61;64.75;99843.09;7711784;32;39974;-85
2023/12/31 07:05:53;;;;;;;47.55;18.00;;;;;;;3.79;64.31;99853.03;7704318;32;40785;-85
2023/12/31 07:10:09;;;;;;;322.98;29.67;;;;;;;3.42;66.02;99847.66;7684706;32;38017;-85
2023/12/31 07:14:26;;;;;;;47.65;19.73;;;;;;;3.69;65.32;99837.41;7684490;32;37240;-85
2023/12/31 07:18:42;;;;;;;266.92;26.95;;;;;;;3.76;65.57;99838.16;7684685;32;39418;-86
2023/12/31 07:22:59;;;;;;;79.85;20.60;;;;;;;3.90;65.01;99835.31;7684738;32;39936;-87
2023/12/31 07:27:15;;;;;;;263.73;26.23;;;;;;;3.59;66.21;99839.81;7684523;32;38665;-89
2023/12/31 07:31:35;;;;;;;73.28;21.77;;;;;;;3.75;66.07;99843.78;7684954;32;37055;-89
2023/12/31 07:35:51;;;;;;;90.65;22.02;;;;;;;4.01;65.37;99823.72;7685032;32;39359;-90
2023/12/31 07:40:08;;;;;;;413.70;33.17;;;;;;;3.96;65.42;99831.69;7684347;32;40810;-89
2023/12/31 07:44:24;;;;;;;294.65;30.37;;;;;;;3.97;65.62;99817.16;7703452;32;37995;-86
2023/12/31 07:48:40;;;;;;;252.85;27.48;;;;;;;3.57;66.62;99820.34;7710045;32;37417;-87
2023/12/31 07:52:57;;;;;;;126.82;23.25;;;;;;;3.74;66.10;99807.91;7711036;32;39302;-77
2023/12/31 07:57:13;;;;;;;351.52;34.85;;;;;;;3.66;69.16;99820.88;7708990;32;39912;-86
2023/12/31 08:01:29;;;;;;;116.03;25.12;;;;;;;3.54;68.71;99824.31;7707118;32;38519;-86
2023/12/31 08:05:45;;;;;;;260.50;29.83;;;;;;;4.07;67.26;99828.22;7708216;32;37287;-87
2023/12/31 08:10:02;;;;;;;252.70;31.67;;;;;;;3.87;67.66;99822.25;7710794;32;39006;-87
2023/12/31 08:14:18;;;;;;;173.60;43.20;;;;;;;3.94;67.81;99825.69;7712252;32;39645;-90
2023/12/31 08:18:34;;;;;;;300.27;33.83;;;;;;;4.29;67.06;99811.50;7712412;32;38679;-90
2023/12/31 08:22:52;;;;;;;356.30;32.28;;;;;;;4.30;67.72;99822.09;7711354;32;38320;-88
2023/12/31 08:27:08;;;;;;;137.25;24.67;;;;;;;3.87;68.78;99812.28;7710645;32;39437;-88
2023/12/31 08:31:25;;;;;;;413.48;36.38;;;;;;;4.30;68.94;99799.69;7710542;32;40227;-89
2023/12/31 08:35:42;;;;;;;82.78;25.12;;;;;;;4.62;67.32;99810.19;7711405;32;38777;-90
2023/12/31 08:39:58;;;;;;;40.15;22.25;;;;;;;4.40;71.03;99816.13;7689908;32;37036;-89
2023/12/31 08:44:14;;;;;;;39.97;21.10;;;;;;;5.13;69.47;99808.72;7698384;32;39407;-85
2023/12/31 08:48:31;;;;;;;39.55;21.92;;;;;;;5.46;67.84;99813.50;7688514;32;40167;-89
2023/12/31 08:52:48;;;;;;;43.42;22.83;;;;;;;5.71;68.45;99814.25;7685223;32;37987;-89
2023/12/31 08:57:04;;;;;;;41.15;21.83;;;;;;;6.01;69.11;99804.09;7688317;32;38320;-87
2023/12/31 09:01:21;;;;;;;38.40;21.40;;;;;;;6.56;67.83;99809.94;7688786;32;39573;-86
2023/12/31 09:05:37;;;;;;;36.10;20.88;;;;;;;6.94;66.41;99801.09;7690339;32;40066;-87
2023/12/31 09:09:53;;;;;;;35.38;20.50;;;;;;;6.80;66.68;99805.19;7688971;32;38326;-90
2023/12/31 09:14:09;;;;;;;40.75;21.58;;;;;;;7.03;65.69;99787.94;7690897;32;37283;-90
2023/12/31 09:18:26;;;;;;;40.50;21.40;;;;;;;6.87;66.23;99780.66;7687014;32;39142;-89
2023/12/31 09:22:42;;;;;;;44.67;20.75;;;;;;;6.89;66.77;99770.38;7690277;32;40564;-90
2023/12/31 09:26:58;;;;;;;41.80;22.08;;;;;;;6.96;66.64;99771.84;7673719;32;38041;-90
2023/12/31 09:31:14;;;;;;;43.70;21.80;;;;;;;7.18;66.74;99764.84;7686961;32;38407;-88
2023/12/31 09:35:31;;;;;;;40.53;22.15;;;;;;;7.39;66.31;99747.75;7702551;32;39472;-90
2023/12/31 09:39:48;;;;;;;38.08;21.10;;;;;;;7.53;65.89;99726.50;7706930;32;40830;-87
2023/12/31 09:44:04;;;;;;;39.47;21.45;;;;;;;7.61;65.78;99734.19;7685760;32;38649;-90
2023/12/31 09:48:21;;;;;;;38.08;22.27;;;;;;;7.57;64.83;99732.22;7685858;32;37454;-88
2023/12/31 09:52:38;;;;;;;35.25;21.17;;;;;;;7.68;65.32;99751.09;7684657;32;39423;-86
2023/12/31 09:56:56;;;;;;;34.03;20.17;;;;;;;8.03;64.60;99740.88;7685997;32;40951;-89
2023/12/31 10:01:13;;;;;;;36.88;21.50;;;;;;;8.38;62.89;99724.13;7685848;32;36813;-88
2023/12/31 10:05:29;;;;;;;36.42;19.73;;;;;;;8.16;60.96;99716.03;7688003;32;38023;-89
2023/12/31 10:09:46;;;;;;;36.00;21.42;;;;;;;7.42;62.54;99714.72;7689256;32;39527;-89
2023/12/31 10:14:02;;;;;;;38.63;22.10;;;;;;;7.14;63.15;99708.41;7718273;32;40939;-85
2023/12/31 10:18:19;;;;;;;39.25;20.37;;;;;;;7.04;63.83;99710.16;7722115;32;38256;-89
2023/12/31 10:22:36;;;;;;;31.05;18.25;;;;;;;7.00;64.03;99690.84;7715555;32;38009;-85
2023/12/31 10:26:54;;;;;;;34.75;20.70;;;;;;;6.89;67.69;99689.06;7713237;32;39598;-91
2023/12/31 10:31:10;;;;;;;33.13;19.92;;;;;;;6.93;64.99;99671.22;7713229;32;39564;-91
2023/12/31 10:35:26;;;;;;;36.05;20.12;;;;;;;6.87;66.69;99656.81;7713240;32;38085;-93
2023/12/31 10:39:42;;;;;;;38.83;20.80;;;;;;;7.06;65.13;99638.34;7712129;32;38165;-90
2023/12/31 10:44:01;;;;;;;33.90;19.15;;;;;;;7.29;66.27;99655.41;7712443;32;39685;-90
2023/12/31 10:48:23;;;;;;;34.10;19.48;;;;;;;7.28;66.87;99653.81;7711888;32;39984;-85
2023/12/31 10:52:41;;;;;;;36.25;19.35;;;;;;;7.41;62.83;99653.38;7710594;32;37932;-90
2023/12/31 10:56:58;;;;;;;37.35;21.23;;;;;;;7.11;63.54;99649.25;7710550;32;37494;-90
2023/12/31 11:01:16;;;;;;;39.70;20.67;;;;;;;7.04;63.33;99640.50;7710580;32;39405;-89
2023/12/31 11:05:33;;;;;;;32.63;19.62;;;;;;;6.65;63.84;99635.09;7711963;32;39984;-90
2023/12/31 11:09:50;;;;;;;34.17;19.83;;;;;;;6.63;64.00;99620.19;7707007;32;37573;-91
2023/12/31 11:14:09;;;;;;;31.52;19.42;;;;;;;6.52;64.84;99608.34;7685469;32;37909;-90
2023/12/31 11:18:47;;;;;;;34.72;20.25;;;;;;;6.43;65.22;99610.66;7686594;32;39326;-92
2023/12/31 11:23:24;;;;;;;37.38;20.02;;;;;;;6.29;65.36;99609.38;7684894;32;39937;-93
2023/12/31 11:27:41;;;;;;;33.67;19.08;;;;;;;6.24;65.54;99598.47;7684694;32;38048;-91
2023/12/31 11:31:57;;;;;;;33.38;19.17;;;;;;;6.04;66.04;99601.69;7706205;32;37297;-94
2023/12/31 11:36:16;;;;;;;32.05;19.95;;;;;;;6.05;65.67;99577.09;7693760;32;40108;-94
2023/12/31 11:40:34;;;;;;;33.22;19.20;;;;;;;6.07;65.26;99583.09;7670937;32;39598;-91
2023/12/31 11:44:50;;;;;;;35.63;20.35;;;;;;;6.07;65.35;99571.44;7685075;32;38091;-91
2023/12/31 11:49:09;;;;;;;31.52;19.12;;;;;;;6.10;65.37;99570.94;7727602;32;37978;-90
2023/12/31 11:53:46;;;;;;;32.30;19.17;;;;;;;6.15;65.35;99552.06;7691478;32;38322;-88
2023/12/31 11:58:02;;;;;;;33.03;19.08;;;;;;;6.14;65.33;99543.13;7684189;32;40013;-89
2023/12/31 12:02:20;;;;;;;32.45;19.73;;;;;;;6.20;64.90;99538.59;7690535;32;38732;-89
2023/12/31 12:06:40;;;;;;;34.67;19.33;;;;;;;6.00;65.57;99537.25;7706922;32;38014;-90
2023/12/31 12:10:56;;;;;;;33.30;19.33;;;;;;;6.06;64.93;99521.09;7688703;32;38929;-90
2023/12/31 12:15:14;;;;;;;32.33;20.40;;;;;;;5.74;65.75;99527.06;7690970;32;39371;-89
2023/12/31 12:19:34;;;;;;;34.53;19.73;;;;;;;5.72;65.86;99518.38;7710202;32;38690;-89
2023/12/31 12:23:54;;;;;;;31.33;19.05;;;;;;;5.64;65.79;99508.78;7705929;32;38275;-88
2023/12/31 12:28:13;;;;;;;32.80;20.30;;;;;;;5.32;66.53;99513.94;7689879;32;37734;-90
2023/12/31 12:32:29;;;;;;;35.72;19.75;;;;;;;5.57;66.00;99500.84;7704715;32;39947;-92
2023/12/31 12:36:49;;;;;;;32.58;19.08;;;;;;;5.43;66.62;99492.25;7709972;32;37789;-90
2023/12/31 12:41:06;;;;;;;34.67;20.15;;;;;;;5.48;66.39;99480.66;7696481;32;37667;-92
2023/12/31 12:45:23;;;;;;;33.97;20.55;;;;;;;5.62;66.21;99482.00;7699737;32;39300;-95
2023/12/31 12:49:39;;;;;;;32.42;18.65;;;;;;;5.24;67.47;99467.31;7692568;32;39845;-92
2023/12/31 12:53:56;;;;;;;35.63;20.15;;;;;;;5.66;66.89;99466.09;7695260;32;38389;-93
2023/12/31 12:58:12;;;;;;;28.92;18.12;;;;;;;6.29;66.47;99441.53;7696137;32;37951;-93
2023/12/31 13:02:30;;;;;;;33.58;18.80;;;;;;;6.93;64.21;99444.41;7695788;32;39422;-92
2023/12/31 13:06:57;;;;;;;30.35;17.95;;;;;;;7.10;62.76;99438.06;7694805;32;39808;-92
2023/12/31 13:11:13;;;;;;;32.90;18.17;;;;;;;6.99;62.06;99418.19;7695233;32;37954;-92
2023/12/31 13:15:30;;;;;;;30.70;18.73;;;;;;;6.99;62.21;99411.94;7694926;32;35204;-91
2023/12/31 13:19:46;;;;;;;31.98;18.58;;;;;;;6.65;63.32;99409.44;7695690;32;39540;-92
2023/12/31 13:24:03;;;;;;;34.70;20.20;;;;;;;7.29;62.36;99395.09;7693801;32;40861;-92
2023/12/31 13:28:21;;;;;;;37.80;20.00;;;;;;;7.84;61.35;99382.97;7694070;32;37575;-91
2023/12/31 13:32:38;;;;;;;34.72;19.33;;;;;;;8.67;58.81;99380.56;7694476;32;37356;-92
2023/12/31 13:36:55;;;;;;;36.53;19.17;;;;;;;9.28;55.91;99386.06;7693701;32;39372;-92
2023/12/31 13:41:12;;;;;;;34.50;19.17;;;;;;;9.46;54.51;99378.41;7693923;32;40905;-92
2023/12/31 13:45:29;;;;;;;35.40;20.65;;;;;;;10.15;52.11;99368.69;7696775;32;38711;-92
2023/12/31 13:49:46;;;;;;;31.70;18.62;;;;;;;9.47;53.11;99375.44;7703607;32;37441;-92
2023/12/31 13:54:03;;;;;;;34.83;17.85;;;;;;;8.68;55.72;99374.88;7693934;32;39060;-92
2023/12/31 13:58:19;;;;;;;30.80;18.15;;;;;;;7.97;57.49;99372.72;7686261;32;40084;-92
2023/12/31 14:02:36;;;;;;;38.17;19.75;;;;;;;7.25;59.92;99367.69;7685635;32;37544;-89
2023/12/31 14:07:01;;;;;;;36.38;19.67;;;;;;;7.02;61.53;99368.87;7685651;32;37182;-87
2023/12/31 14:11:17;;;;;;;40.30;20.52;;;;;;;6.80;61.96;99357.31;7685589;32;39966;-88
2023/12/31 14:15:35;;;;;;;39.35;20.73;;;;;;;6.36;63.68;99367.19;7685703;32;40894;-88
2023/12/31 14:19:52;;;;;;;38.30;20.40;;;;;;;6.46;64.02;99373.78;7686048;32;37809;-90
2023/12/31 14:24:10;;;;;;;36.60;20.33;;;;;;;6.20;64.61;99370.78;7693401;32;37357;-90
2023/12/31 14:28:26;;;;;;;37.85;18.45;;;;;;;6.19;64.86;99361.00;7711212;32;39362;-94
2023/12/31 14:32:42;;;;;;;39.10;21.23;;;;;;;5.97;65.54;99367.25;7711937;32;40025;-89
2023/12/31 14:37:01;;;;;;;36.60;20.37;;;;;;;5.84;65.89;99360.28;7709469;32;37868;-86
2023/12/31 14:41:18;;;;;;;41.55;22.13;;;;;;;5.98;65.50;99349.12;7719741;32;37795;-86
2023/12/31 14:45:34;;;;;;;39.72;20.67;;;;;;;5.83;66.03;99347.03;7701257;32;40022;-84
2023/12/31 14:49:51;;;;;;;40.65;22.00;;;;;;;5.77;66.02;99354.25;7685322;32;39756;-83
2023/12/31 14:54:07;;;;;;;57.40;28.58;;;;;;;5.87;65.78;99367.09;7684980;32;38899;-85
2023/12/31 14:58:25;;;;;;;42.83;22.87;;;;;;;5.71;66.35;99357.97;7730345;32;36990;-85
2023/12/31 15:02:42;;;;;;;42.05;22.70;;;;;;;5.53;67.16;99342.03;7719520;32;41080;-85
2023/12/31 15:06:58;;;;;;;44.72;23.27;;;;;;;5.57;67.29;99349.41;7685022;32;40512;-85
2023/12/31 15:11:14;;;;;;;41.20;22.45;;;;;;;5.51;67.79;99347.69;7684813;32;38705;-84
2023/12/31 15:15:46;;;;;;;43.03;22.10;;;;;;;5.58;67.41;99332.09;7684023;32;37165;-85
2023/12/31 15:20:03;;;;;;;44.58;23.12;;;;;;;5.55;67.65;99348.81;7684890;32;39329;-85
2023/12/31 15:24:19;;;;;;;48.85;23.12;;;;;;;5.55;67.51;99338.00;7684739;32;40103;-89
2023/12/31 15:28:36;;;;;;;47.17;24.35;;;;;;;5.53;67.66;99329.31;7696394;32;37752;-89
2023/12/31 15:32:52;;;;;;;43.60;23.05;;;;;;;5.29;69.00;99330.63;7686351;32;37734;-88
2023/12/31 15:37:09;;;;;;;56.37;23.73;;;;;;;5.38;68.88;99329.13;7693295;32;39552;-89
2023/12/31 15:41:26;;;;;;;48.45;25.15;;;;;;;5.44;68.80;99328.13;7689036;32;39952;-88
2023/12/31 15:45:43;;;;;;;48.38;23.92;;;;;;;5.55;68.52;99321.78;7686596;32;38281;-88
2023/12/31 15:49:59;;;;;;;47.33;23.02;;;;;;;5.43;69.08;99312.97;7716744;32;36785;-90
2023/12/31 15:54:15;;;;;;;45.10;22.92;;;;;;;5.33;69.64;99310.13;7706301;32;39496;-89
2023/12/31 15:58:32;;;;;;;50.75;24.15;;;;;;;5.40;69.62;99308.09;7684472;32;41368;-91
2023/12/31 16:02:49;;;;;;;50.40;23.23;;;;;;;5.55;69.27;99305.56;7686022;32;38709;-85
2023/12/31 16:07:05;;;;;;;54.90;25.15;;;;;;;5.43;69.92;99315.66;7697744;32;38075;-89
2023/12/31 16:11:22;;;;;;;56.75;25.90;;;;;;;5.45;69.93;99308.16;7696789;32;39872;-87
2023/12/31 16:15:38;;;;;;;52.65;24.20;;;;;;;5.64;69.51;99309.47;7698489;32;39909;-88
2023/12/31 16:19:56;;;;;;;50.58;25.25;;;;;;;5.74;69.19;99294.44;7694982;32;37950;-87
2023/12/31 16:24:13;;;;;;;50.17;24.48;;;;;;;5.54;70.17;99287.72;7695800;32;37029;-88
2023/12/31 16:28:31;;;;;;;49.25;23.60;;;;;;;5.56;70.07;99292.87;7696433;32;39450;-89
2023/12/31 16:32:48;;;;;;;49.47;25.58;;;;;;;5.64;70.10;99277.03;7696057;32;40835;-89
2023/12/31 16:37:05;;;;;;;54.63;27.87;;;;;;;5.43;71.11;99280.53;7696739;32;37507;-88
2023/12/31 16:41:22;;;;;;;57.42;27.08;;;;;;;5.61;70.81;99280.22;7696914;32;37637;-88
2023/12/31 16:45:38;;;;;;;51.83;25.30;;;;;;;5.64;70.37;99274.31;7697103;32;39516;-88
2023/12/31 16:49:58;;;;;;;63.60;27.58;;;;;;;5.70;70.43;99277.91;7693274;32;40907;-87
2023/12/31 16:54:17;;;;;;;59.25;27.25;;;;;;;5.68;70.72;99271.13;7696677;32;38828;-88
2023/12/31 16:58:33;;;;;;;65.97;27.40;;;;;;;5.55;71.57;99270.41;7695703;32;37232;-87
2023/12/31 17:02:49;;;;;;;60.10;27.65;;;;;;;5.77;70.71;99269.59;7694705;32;39431;-88
2023/12/31 17:07:06;;;;;;;60.12;27.87;;;;;;;5.57;71.23;99273.69;7694414;32;40011;-88
2023/12/31 17:11:22;;;;;;;52.15;25.80;;;;;;;5.94;70.56;99274.94;7690774;32;37505;-88
2023/12/31 17:15:38;;;;;;;56.95;26.77;;;;;;;5.98;70.33;99263.34;7691269;32;37326;-87
2023/12/31 17:19:54;;;;;;;52.10;25.42;;;;;;;5.99;70.61;99261.47;7722066;32;39464;-88
2023/12/31 17:24:11;;;;;;;62.97;26.83;;;;;;;6.11;70.40;99264.84;7712231;32;39994;-85
2023/12/31 17:28:27;;;;;;;61.03;28.10;;;;;;;6.00;70.93;99261.22;7699526;32;38746;-88
2023/12/31 17:32:44;;;;;;;59.50;27.00;;;;;;;6.07;70.73;99258.34;7712630;32;37314;-86
2023/12/31 17:37:01;;;;;;;60.05;27.58;;;;;;;6.12;70.56;99244.84;7711281;32;40021;-88
2023/12/31 17:41:18;;;;;;;72.07;31.37;;;;;;;6.14;70.63;99244.56;7709346;32;39865;-88
2023/12/31 17:45:34;;;;;;;65.25;29.20;;;;;;;6.14;70.95;99241.88;7712082;32;37637;-87
2023/12/31 17:49:51;;;;;;;64.97;30.00;;;;;;;6.19;70.99;99241.91;7714999;32;37393;-84
2023/12/31 17:54:07;;;;;;;70.72;32.13;;;;;;;6.24;70.73;99238.44;7700160;32;40045;-88
2023/12/31 17:58:25;;;;;;;63.92;30.45;;;;;;;6.24;70.90;99233.84;7692263;32;40013;-88
2023/12/31 18:02:41;;;;;;;60.75;28.58;;;;;;;6.28;71.21;99240.38;7708983;32;37861;-87
2023/12/31 18:06:57;;;;;;;64.62;27.25;;;;;;;6.33;71.15;99232.31;7709120;32;37894;-87
2023/12/31 18:11:16;;;;;;;61.65;27.70;;;;;;;6.50;70.51;99220.53;7713146;32;39073;-89
2023/12/31 18:15:33;;;;;;;48.40;27.10;;;;;;;6.52;70.65;99218.38;7707267;32;39907;-87
2023/12/31 18:19:49;;;;;;;60.45;29.37;;;;;;;6.45;70.77;99209.66;7715826;32;38001;-87
2023/12/31 18:24:06;;;;;;;60.15;29.05;;;;;;;6.46;71.18;99211.28;7704949;32;37509;-88
2023/12/31 18:28:23;;;;;;;72.57;29.65;;;;;;;6.70;70.01;99209.84;7703748;32;39111;-88
2023/12/31 18:32:41;;;;;;;66.85;31.12;;;;;;;6.71;70.05;99211.47;7693813;32;39987;-87
2023/12/31 18:36:57;;;;;;;59.15;27.58;;;;;;;6.73;69.99;99206.63;7686466;32;38046;-85
2023/12/31 18:41:13;;;;;;;57.30;28.20;;;;;;;6.85;69.32;99194.78;7709874;32;37350;-83
2023/12/31 18:45:29;;;;;;;53.83;26.25;;;;;;;6.76;69.61;99197.97;7698293;32;39791;-86
2023/12/31 18:49:46;;;;;;;62.33;27.67;;;;;;;6.72;69.86;99196.84;7687863;32;40767;-85
2023/12/31 18:54:05;;;;;;;63.38;31.05;;;;;;;6.81;69.31;99201.78;7689459;32;37990;-83
2023/12/31 18:58:21;;;;;;;64.22;30.92;;;;;;;6.87;69.38;99198.03;7694150;32;37974;-84
2023/12/31 19:02:40;;;;;;;62.53;30.05;;;;;;;6.99;68.95;99184.28;7684830;32;40075;-84
2023/12/31 19:06:57;;;;;;;50.90;27.27;;;;;;;7.00;69.07;99191.31;7685449;32;40038;-85
2023/12/31 19:11:13;;;;;;;49.35;27.52;;;;;;;7.25;68.32;99191.47;7717467;32;38625;-82
2023/12/31 19:15:29;;;;;;;53.85;28.15;;;;;;;7.17;68.64;99189.25;7704933;32;38002;-82
2023/12/31 19:19:45;;;;;;;51.75;27.35;;;;;;;7.28;68.38;99187.41;7710980;32;39384;-82
2023/12/31 19:24:01;;;;;;;63.70;29.12;;;;;;;7.27;68.36;99180.34;7688739;32;40036;-81
2023/12/31 19:28:20;;;;;;;58.80;29.27;;;;;;;7.26;68.36;99178.69;7698002;32;37815;-82
2023/12/31 19:32:43;;;;;;;54.33;28.95;;;;;;;7.40;67.74;99174.44;7683509;32;38376;-83
2023/12/31 19:37:00;;;;;;;53.25;27.05;;;;;;;7.07;68.53;99175.63;7683652;32;39996;-83
2023/12/31 19:41:16;;;;;;;48.38;27.23;;;;;;;7.38;67.84;99179.31;7685136;32;40007;-82
2023/12/31 19:45:32;;;;;;;53.20;27.45;;;;;;;7.30;67.90;99185.25;7682062;32;37957;-83
2023/12/31 19:49:49;;;;;;;50.42;26.10;;;;;;;7.37;67.80;99179.59;7684453;32;37277;-82
2023/12/31 19:54:14;;;;;;;54.33;27.02;;;;;;;7.56;67.05;99182.62;7683943;32;39042;-82